sensor_id;sensor_type;location;lat;lon;timestamp;temperature;humidity
8481;DHT22;4277;51.354;6.740;2023-05-29T00:01:33;15.90;99.90
8481;DHT22;4277;51.354;6.740;2023-05-29T00:04:01;15.90;99.90
8481;DHT22;4277;51.354;6.740;2023-05-29T00:06:26;15.80;99.90
8481;DHT22;4277;51.354;6.740;2023-05-29T00:08:52;15.70;99.90
8481;DHT22;4277;51.354;6.740;2023-05-29T00:11:18;15.70;99.90
8481;DHT22;4277;51.354;6.740;2023-05-29T00:13:43;15.60;99.90
8481;DHT22;4277;51.354;6.740;2023-05-29T00:16:09;15.70;99.90
8481;DHT22;4277;51.354;6.740;2023-05-29T00:18:35;15.70;99.90
8481;DHT22;4277;51.354;6.740;2023-05-29T00:21:01;15.60;99.90
8481;DHT22;4277;51.354;6.740;2023-05-29T00:23:27;15.50;99.90
8481;DHT22;4277;51.354;6.740;2023-05-29T00:25:52;15.50;99.90
8481;DHT22;4277;51.354;6.740;2023-05-29T00:28:18;15.30;99.90
8481;DHT22;4277;51.354;6.740;2023-05-29T00:30:43;15.30;99.90
8481;DHT22;4277;51.354;6.740;2023-05-29T00:33:09;15.20;99.90
8481;DHT22;4277;51.354;6.740;2023-05-29T06:29:57;13.00;1.00
8481;DHT22;4277;51.354;6.740;2023-05-29T06:32:23;14.10;1.00
8481;DHT22;4277;51.354;6.740;2023-05-29T06:34:48;14.00;1.00
8481;DHT22;4277;51.354;6.740;2023-05-29T06:37:14;14.00;1.00
8481;DHT22;4277;51.354;6.740;2023-05-29T06:39:40;14.00;1.00
8481;DHT22;4277;51.354;6.740;2023-05-29T06:42:07;14.10;1.00
8481;DHT22;4277;51.354;6.740;2023-05-29T06:44:33;14.10;1.00
8481;DHT22;4277;51.354;6.740;2023-05-29T06:46:59;14.20;1.00
8481;DHT22;4277;51.354;6.740;2023-05-29T06:49:24;14.20;1.00
8481;DHT22;4277;51.354;6.740;2023-05-29T06:51:50;14.30;1.00
8481;DHT22;4277;51.354;6.740;2023-05-29T07:06:25;14.40;1.00
8481;DHT22;4277;51.354;6.740;2023-05-29T07:08:51;14.70;1.00
8481;DHT22;4277;51.354;6.740;2023-05-29T07:11:16;14.70;1.00
8481;DHT22;4277;51.354;6.740;2023-05-29T07:13:42;14.80;1.00
8481;DHT22;4277;51.354;6.740;2023-05-29T07:16:07;14.80;1.00
8481;DHT22;4277;51.354;6.740;2023-05-29T07:18:33;14.90;1.00
8481;DHT22;4277;51.354;6.740;2023-05-29T07:21:00;14.80;1.00
8481;DHT22;4277;51.354;6.740;2023-05-29T07:28:18;14.90;1.00
8481;DHT22;4277;51.354;6.740;2023-05-29T07:30:43;15.20;1.00
8481;DHT22;4277;51.354;6.740;2023-05-29T07:33:09;15.30;1.00
8481;DHT22;4277;51.354;6.740;2023-05-29T07:35:35;15.20;1.00
8481;DHT22;4277;51.354;6.740;2023-05-29T07:38:00;15.30;1.00
8481;DHT22;4277;51.354;6.740;2023-05-29T07:40:26;15.30;1.00
8481;DHT22;4277;51.354;6.740;2023-05-29T07:42:52;15.30;1.00
8481;DHT22;4277;51.354;6.740;2023-05-29T07:45:17;15.30;1.00
8481;DHT22;4277;51.354;6.740;2023-05-29T07:47:43;15.40;1.00
8481;DHT22;4277;51.354;6.740;2023-05-29T07:50:09;15.50;1.00
8481;DHT22;4277;51.354;6.740;2023-05-29T07:52:35;15.50;1.00
8481;DHT22;4277;51.354;6.740;2023-05-29T08:04:46;15.60;1.00
8481;DHT22;4277;51.354;6.740;2023-05-29T08:07:12;15.90;1.00
8481;DHT22;4277;51.354;6.740;2023-05-29T08:09:38;15.90;1.00
8481;DHT22;4277;51.354;6.740;2023-05-29T08:12:03;16.00;1.00
8481;DHT22;4277;51.354;6.740;2023-05-29T10:12:38;16.00;1.00
8481;DHT22;4277;51.354;6.740;2023-05-29T10:17:56;18.30;99.90
8481;DHT22;4277;51.354;6.740;2023-05-29T10:20:23;18.50;99.90
8481;DHT22;4277;51.354;6.740;2023-05-29T10:22:51;18.50;99.90
8481;DHT22;4277;51.354;6.740;2023-05-29T10:25:19;18.70;99.90
8481;DHT22;4277;51.354;6.740;2023-05-29T10:27:45;18.80;99.90
8481;DHT22;4277;51.354;6.740;2023-05-29T10:30:21;18.80;99.90
8481;DHT22;4277;51.354;6.740;2023-05-29T10:33:08;18.90;99.90
8481;DHT22;4277;51.354;6.740;2023-05-29T10:38:12;18.90;99.90
8481;DHT22;4277;51.354;6.740;2023-05-29T10:40:39;18.90;99.90
8481;DHT22;4277;51.354;6.740;2023-05-29T10:43:04;19.00;99.90
8481;DHT22;4277;51.354;6.740;2023-05-29T10:50:38;19.10;99.90
8481;DHT22;4277;51.354;6.740;2023-05-29T10:53:07;19.20;99.90
8481;DHT22;4277;51.354;6.740;2023-05-29T10:55:36;19.10;99.90
8481;DHT22;4277;51.354;6.740;2023-05-29T10:58:09;19.00;99.90
8481;DHT22;4277;51.354;6.740;2023-05-29T11:00:40;19.20;99.90
8481;DHT22;4277;51.354;6.740;2023-05-29T11:03:07;19.20;99.90
8481;DHT22;4277;51.354;6.740;2023-05-29T11:05:33;19.20;99.90
8481;DHT22;4277;51.354;6.740;2023-05-29T11:08:01;19.30;99.90
8481;DHT22;4277;51.354;6.740;2023-05-29T11:10:56;19.40;99.90
8481;DHT22;4277;51.354;6.740;2023-05-29T11:18:47;19.40;99.90
8481;DHT22;4277;51.354;6.740;2023-05-29T11:21:44;19.50;99.90
8481;DHT22;4277;51.354;6.740;2023-05-29T11:24:25;19.50;99.90
8481;DHT22;4277;51.354;6.740;2023-05-29T11:26:55;19.70;99.90
8481;DHT22;4277;51.354;6.740;2023-05-29T11:29:23;19.80;99.90
8481;DHT22;4277;51.354;6.740;2023-05-29T11:31:54;19.90;99.90
8481;DHT22;4277;51.354;6.740;2023-05-29T11:34:22;20.00;99.90
8481;DHT22;4277;51.354;6.740;2023-05-29T11:36:48;20.00;99.90
8481;DHT22;4277;51.354;6.740;2023-05-29T11:39:16;19.70;99.90
8481;DHT22;4277;51.354;6.740;2023-05-29T11:41:42;19.70;99.90
8481;DHT22;4277;51.354;6.740;2023-05-29T11:44:07;19.70;99.90
8481;DHT22;4277;51.354;6.740;2023-05-29T11:46:34;19.80;99.90
8481;DHT22;4277;51.354;6.740;2023-05-29T11:49:00;19.90;99.90
8481;DHT22;4277;51.354;6.740;2023-05-29T11:51:26;20.00;99.90
8481;DHT22;4277;51.354;6.740;2023-05-29T11:53:52;20.00;99.90
8481;DHT22;4277;51.354;6.740;2023-05-29T11:56:24;20.20;99.90
8481;DHT22;4277;51.354;6.740;2023-05-29T11:58:50;20.30;99.90
8481;DHT22;4277;51.354;6.740;2023-05-29T12:01:17;20.30;99.90
8481;DHT22;4277;51.354;6.740;2023-05-29T12:03:44;20.40;99.90
8481;DHT22;4277;51.354;6.740;2023-05-29T12:06:10;20.50;99.90
8481;DHT22;4277;51.354;6.740;2023-05-29T12:08:39;20.30;99.90
8481;DHT22;4277;51.354;6.740;2023-05-29T12:11:05;20.40;99.90
8481;DHT22;4277;51.354;6.740;2023-05-29T12:13:31;20.60;99.90
8481;DHT22;4277;51.354;6.740;2023-05-29T12:15:59;20.60;99.90
8481;DHT22;4277;51.354;6.740;2023-05-29T12:18:26;20.70;99.90
8481;DHT22;4277;51.354;6.740;2023-05-29T12:23:24;20.90;99.90
8481;DHT22;4277;51.354;6.740;2023-05-29T12:25:51;21.00;99.90
8481;DHT22;4277;51.354;6.740;2023-05-29T12:30:44;21.10;99.90
8481;DHT22;4277;51.354;6.740;2023-05-29T12:33:32;21.20;99.90
8481;DHT22;4277;51.354;6.740;2023-05-29T12:36:05;21.30;99.90
8481;DHT22;4277;51.354;6.740;2023-05-29T12:38:54;21.10;99.90
8481;DHT22;4277;51.354;6.740;2023-05-29T12:41:31;21.00;99.90
8481;DHT22;4277;51.354;6.740;2023-05-29T12:43:58;21.00;99.90
8481;DHT22;4277;51.354;6.740;2023-05-29T12:46:25;21.10;99.90
8481;DHT22;4277;51.354;6.740;2023-05-29T12:48:53;21.00;99.90
8481;DHT22;4277;51.354;6.740;2023-05-29T12:51:23;21.20;99.90
8481;DHT22;4277;51.354;6.740;2023-05-29T12:53:49;21.00;99.90
8481;DHT22;4277;51.354;6.740;2023-05-29T12:56:14;21.00;99.90
8481;DHT22;4277;51.354;6.740;2023-05-29T12:58:40;21.00;99.90
8481;DHT22;4277;51.354;6.740;2023-05-29T13:01:12;21.10;99.90
8481;DHT22;4277;51.354;6.740;2023-05-29T13:03:39;21.20;99.90
8481;DHT22;4277;51.354;6.740;2023-05-29T13:06:05;21.30;99.90
8481;DHT22;4277;51.354;6.740;2023-05-29T13:08:31;21.20;99.90
8481;DHT22;4277;51.354;6.740;2023-05-29T13:10:56;21.20;99.90
8481;DHT22;4277;51.354;6.740;2023-05-29T13:13:22;21.20;99.90
8481;DHT22;4277;51.354;6.740;2023-05-29T13:15:47;21.30;99.90
8481;DHT22;4277;51.354;6.740;2023-05-29T13:18:13;21.40;99.90
8481;DHT22;4277;51.354;6.740;2023-05-29T13:20:38;21.30;99.90
8481;DHT22;4277;51.354;6.740;2023-05-29T13:23:04;21.20;99.90
8481;DHT22;4277;51.354;6.740;2023-05-29T13:25:30;21.10;99.90
8481;DHT22;4277;51.354;6.740;2023-05-29T13:27:55;21.00;99.90
8481;DHT22;4277;51.354;6.740;2023-05-29T13:30:21;21.00;99.90
8481;DHT22;4277;51.354;6.740;2023-05-29T13:32:47;21.00;99.90
8481;DHT22;4277;51.354;6.740;2023-05-29T13:35:13;21.00;99.90
8481;DHT22;4277;51.354;6.740;2023-05-29T13:37:39;21.10;99.90
8481;DHT22;4277;51.354;6.740;2023-05-29T13:40:06;21.20;99.90
8481;DHT22;4277;51.354;6.740;2023-05-29T13:42:32;21.30;99.90
8481;DHT22;4277;51.354;6.740;2023-05-29T13:44:57;21.40;99.90
8481;DHT22;4277;51.354;6.740;2023-05-29T13:47:23;21.30;99.90
8481;DHT22;4277;51.354;6.740;2023-05-29T13:49:49;21.20;99.90
8481;DHT22;4277;51.354;6.740;2023-05-29T13:52:15;21.40;99.90
8481;DHT22;4277;51.354;6.740;2023-05-29T13:54:41;21.50;99.90
8481;DHT22;4277;51.354;6.740;2023-05-29T13:57:07;21.60;99.90
8481;DHT22;4277;51.354;6.740;2023-05-29T13:59:34;21.50;99.90
8481;DHT22;4277;51.354;6.740;2023-05-29T14:01:59;21.40;99.90
8481;DHT22;4277;51.354;6.740;2023-05-29T14:04:26;21.30;99.90
8481;DHT22;4277;51.354;6.740;2023-05-29T14:06:52;21.30;99.90
8481;DHT22;4277;51.354;6.740;2023-05-29T14:09:18;21.40;99.90
8481;DHT22;4277;51.354;6.740;2023-05-29T14:11:52;21.50;99.90
8481;DHT22;4277;51.354;6.740;2023-05-29T14:14:17;21.60;99.90
8481;DHT22;4277;51.354;6.740;2023-05-29T14:16:43;21.50;99.90
8481;DHT22;4277;51.354;6.740;2023-05-29T14:19:08;21.50;99.90
8481;DHT22;4277;51.354;6.740;2023-05-29T14:21:34;21.60;99.90
8481;DHT22;4277;51.354;6.740;2023-05-29T14:24:01;21.70;99.90
8481;DHT22;4277;51.354;6.740;2023-05-29T14:26:26;21.70;99.90
8481;DHT22;4277;51.354;6.740;2023-05-29T14:28:52;21.60;99.90
8481;DHT22;4277;51.354;6.740;2023-05-29T14:31:17;21.50;99.90
8481;DHT22;4277;51.354;6.740;2023-05-29T14:33:43;21.40;99.90
8481;DHT22;4277;51.354;6.740;2023-05-29T14:36:08;21.40;99.90
8481;DHT22;4277;51.354;6.740;2023-05-29T14:38:34;21.30;99.90
8481;DHT22;4277;51.354;6.740;2023-05-29T14:41:01;21.20;99.90
8481;DHT22;4277;51.354;6.740;2023-05-29T14:43:26;21.20;99.90
8481;DHT22;4277;51.354;6.740;2023-05-29T14:45:52;21.30;99.90
8481;DHT22;4277;51.354;6.740;2023-05-29T14:48:17;21.30;99.90
8481;DHT22;4277;51.354;6.740;2023-05-29T14:50:43;21.40;99.90
8481;DHT22;4277;51.354;6.740;2023-05-29T14:53:08;21.40;99.90
8481;DHT22;4277;51.354;6.740;2023-05-29T14:55:34;21.50;99.90
8481;DHT22;4277;51.354;6.740;2023-05-29T14:58:03;21.60;99.90
8481;DHT22;4277;51.354;6.740;2023-05-29T15:00:29;21.70;99.90
8481;DHT22;4277;51.354;6.740;2023-05-29T15:02:55;21.70;99.90
8481;DHT22;4277;51.354;6.740;2023-05-29T15:05:24;21.70;99.90
8481;DHT22;4277;51.354;6.740;2023-05-29T15:07:50;21.70;99.90
8481;DHT22;4277;51.354;6.740;2023-05-29T15:10:15;21.70;99.90
8481;DHT22;4277;51.354;6.740;2023-05-29T15:12:45;21.70;99.90
8481;DHT22;4277;51.354;6.740;2023-05-29T15:15:11;21.60;99.90
8481;DHT22;4277;51.354;6.740;2023-05-29T15:17:36;21.80;99.90
8481;DHT22;4277;51.354;6.740;2023-05-29T15:20:04;21.80;99.90
8481;DHT22;4277;51.354;6.740;2023-05-29T15:22:29;21.90;99.90
8481;DHT22;4277;51.354;6.740;2023-05-29T15:24:55;22.20;99.90
8481;DHT22;4277;51.354;6.740;2023-05-29T19:31:02;26.10;99.90
8481;DHT22;4277;51.354;6.740;2023-05-29T19:33:27;18.90;99.90
8481;DHT22;4277;51.354;6.740;2023-05-29T19:35:53;18.60;99.90
8481;DHT22;4277;51.354;6.740;2023-05-29T19:38:18;18.50;99.90
8481;DHT22;4277;51.354;6.740;2023-05-29T19:40:44;18.40;99.90
8481;DHT22;4277;51.354;6.740;2023-05-29T19:43:10;18.30;99.90
8481;DHT22;4277;51.354;6.740;2023-05-29T19:45:36;18.30;99.90
8481;DHT22;4277;51.354;6.740;2023-05-29T19:48:02;18.20;99.90
8481;DHT22;4277;51.354;6.740;2023-05-29T19:50:28;18.10;99.90
8481;DHT22;4277;51.354;6.740;2023-05-29T19:52:54;17.90;99.90
8481;DHT22;4277;51.354;6.740;2023-05-29T19:55:19;17.90;99.90
8481;DHT22;4277;51.354;6.740;2023-05-29T19:57:46;17.80;99.90
8481;DHT22;4277;51.354;6.740;2023-05-29T20:00:13;17.80;99.90
8481;DHT22;4277;51.354;6.740;2023-05-29T20:02:40;17.70;99.90
8481;DHT22;4277;51.354;6.740;2023-05-29T20:05:06;17.60;99.90
8481;DHT22;4277;51.354;6.740;2023-05-29T20:07:32;17.60;99.90
8481;DHT22;4277;51.354;6.740;2023-05-29T20:09:58;17.50;99.90
8481;DHT22;4277;51.354;6.740;2023-05-29T20:12:23;17.50;99.90
8481;DHT22;4277;51.354;6.740;2023-05-29T20:14:49;17.50;99.90
8481;DHT22;4277;51.354;6.740;2023-05-29T20:17:16;17.30;99.90
8481;DHT22;4277;51.354;6.740;2023-05-29T20:19:42;17.30;99.90
8481;DHT22;4277;51.354;6.740;2023-05-29T20:22:08;17.20;99.90
8481;DHT22;4277;51.354;6.740;2023-05-29T20:24:34;17.20;99.90
8481;DHT22;4277;51.354;6.740;2023-05-29T20:27:01;17.20;99.90
8481;DHT22;4277;51.354;6.740;2023-05-29T20:29:26;17.00;99.90
8481;DHT22;4277;51.354;6.740;2023-05-29T20:31:52;16.90;99.90
8481;DHT22;4277;51.354;6.740;2023-05-29T20:34:20;16.90;99.90
8481;DHT22;4277;51.354;6.740;2023-05-29T20:36:45;16.80;99.90
8481;DHT22;4277;51.354;6.740;2023-05-29T20:39:11;16.80;99.90
8481;DHT22;4277;51.354;6.740;2023-05-29T20:41:39;16.70;99.90
8481;DHT22;4277;51.354;6.740;2023-05-29T20:44:05;16.70;99.90
8481;DHT22;4277;51.354;6.740;2023-05-29T20:46:34;16.50;99.90
8481;DHT22;4277;51.354;6.740;2023-05-29T20:49:01;16.50;99.90
8481;DHT22;4277;51.354;6.740;2023-05-29T20:51:26;16.50;99.90
8481;DHT22;4277;51.354;6.740;2023-05-29T20:53:53;16.50;99.90
8481;DHT22;4277;51.354;6.740;2023-05-29T20:56:19;16.40;99.90
8481;DHT22;4277;51.354;6.740;2023-05-29T20:58:46;16.30;99.90
8481;DHT22;4277;51.354;6.740;2023-05-29T21:01:12;16.40;99.90
8481;DHT22;4277;51.354;6.740;2023-05-29T21:03:37;16.40;99.90
8481;DHT22;4277;51.354;6.740;2023-05-29T21:06:03;16.30;99.90
8481;DHT22;4277;51.354;6.740;2023-05-29T21:08:32;16.40;99.90
8481;DHT22;4277;51.354;6.740;2023-05-29T21:10:57;16.30;99.90
8481;DHT22;4277;51.354;6.740;2023-05-29T21:13:23;16.20;99.90
8481;DHT22;4277;51.354;6.740;2023-05-29T21:15:53;16.10;99.90
8481;DHT22;4277;51.354;6.740;2023-05-29T21:18:19;16.00;99.90
8481;DHT22;4277;51.354;6.740;2023-05-29T21:20:45;15.90;99.90
8481;DHT22;4277;51.354;6.740;2023-05-29T21:23:11;15.80;99.90
8481;DHT22;4277;51.354;6.740;2023-05-29T21:25:39;15.90;99.90
8481;DHT22;4277;51.354;6.740;2023-05-29T21:28:05;15.90;99.90
8481;DHT22;4277;51.354;6.740;2023-05-29T21:30:31;15.90;99.90
8481;DHT22;4277;51.354;6.740;2023-05-29T21:32:57;15.70;99.90
8481;DHT22;4277;51.354;6.740;2023-05-29T21:35:25;15.70;99.90
8481;DHT22;4277;51.354;6.740;2023-05-29T21:37:51;15.70;99.90
8481;DHT22;4277;51.354;6.740;2023-05-29T21:40:16;15.60;99.90
8481;DHT22;4277;51.354;6.740;2023-05-29T21:42:45;15.70;99.90
8481;DHT22;4277;51.354;6.740;2023-05-29T21:45:11;15.50;99.90
8481;DHT22;4277;51.354;6.740;2023-05-29T21:47:36;15.50;99.90
8481;DHT22;4277;51.354;6.740;2023-05-29T21:50:02;15.50;99.90
8481;DHT22;4277;51.354;6.740;2023-05-29T21:52:29;15.50;99.90
8481;DHT22;4277;51.354;6.740;2023-05-29T21:54:54;15.60;99.90
8481;DHT22;4277;51.354;6.740;2023-05-29T21:57:20;15.50;99.90
8481;DHT22;4277;51.354;6.740;2023-05-29T21:59:46;15.40;99.90
8481;DHT22;4277;51.354;6.740;2023-05-29T22:02:11;15.30;99.90
8481;DHT22;4277;51.354;6.740;2023-05-29T22:04:37;15.20;99.90
8481;DHT22;4277;51.354;6.740;2023-05-29T22:07:03;15.20;99.90
8481;DHT22;4277;51.354;6.740;2023-05-29T22:09:29;15.20;99.90
8481;DHT22;4277;51.354;6.740;2023-05-29T22:11:55;15.20;99.90
8481;DHT22;4277;51.354;6.740;2023-05-29T22:14:23;15.20;99.90
8481;DHT22;4277;51.354;6.740;2023-05-29T22:16:48;15.00;99.90
8481;DHT22;4277;51.354;6.740;2023-05-29T22:19:14;15.00;99.90
8481;DHT22;4277;51.354;6.740;2023-05-29T22:21:40;15.00;99.90
8481;DHT22;4277;51.354;6.740;2023-05-29T22:24:11;15.10;99.90
8481;DHT22;4277;51.354;6.740;2023-05-29T22:26:38;15.10;99.90
8481;DHT22;4277;51.354;6.740;2023-05-29T22:29:04;15.00;99.90
8481;DHT22;4277;51.354;6.740;2023-05-29T22:31:29;14.90;99.90
8481;DHT22;4277;51.354;6.740;2023-05-29T22:33:55;14.80;99.90
8481;DHT22;4277;51.354;6.740;2023-05-29T22:36:21;14.80;99.90
8481;DHT22;4277;51.354;6.740;2023-05-29T22:38:47;14.80;99.90
8481;DHT22;4277;51.354;6.740;2023-05-29T22:41:13;14.70;99.90
8481;DHT22;4277;51.354;6.740;2023-05-29T22:43:39;14.60;99.90
8481;DHT22;4277;51.354;6.740;2023-05-29T22:46:04;14.70;99.90
8481;DHT22;4277;51.354;6.740;2023-05-29T22:48:31;14.80;99.90
8481;DHT22;4277;51.354;6.740;2023-05-29T23:08:03;14.60;99.90
